Time;durP1;ratioP1;P1;durP2;ratioP2;P2;SDS_P1;SDS_P2;PMS_P1;PMS_P2;Temp;Humidity;BMP_temperature;BMP_pressure;BME280_temperature;BME280_humidity;BME280_pressure;Samples;Min_cycle;Max_cycle;Signal;HPM_P1;HPM_P2
2022/09/12 00:01:08;;;;;;;6.25;5.75;;;;;;;;;;5085372;28;20196;-70
2022/09/12 00:03:34;;;;;;;7.05;6.10;;;;;;;;;;5085269;28;20213;-70
2022/09/12 00:06:07;;;;;;;5.82;5.50;;;;;;;;;;5084893;28;20221;-70
2022/09/12 00:08:33;;;;;;;5.93;5.55;;;;;;;;;;5085121;28;20307;-70
2022/09/12 00:11:04;;;;;;;6.07;5.53;;;;;;;;;;5084855;28;20203;-70
2022/09/12 00:13:30;;;;;;;6.60;5.93;;;;;;;;;;5085038;28;20203;-70
2022/09/12 00:15:56;;;;;;;8.63;5.38;;;;;;;;;;5083772;28;20196;-70
2022/09/12 00:18:22;;;;;;;10.45;6.43;;;;;;;;;;5084813;28;20185;-69
2022/09/12 00:20:49;;;;;;;7.13;6.53;;;;;;;;;;5084804;28;20196;-70
2022/09/12 00:23:16;;;;;;;7.85;6.20;;;;;;;;;;5084618;28;20534;-70
2022/09/12 00:25:42;;;;;;;9.13;6.85;;;;;;;;;;5084590;28;20434;-70
2022/09/12 00:28:09;;;;;;;6.80;5.72;;;;;;;;;;5084550;28;20224;-70
2022/09/12 00:30:39;;;;;;;6.93;6.32;;;;;;;;;;5084779;28;20204;-70
2022/09/12 00:33:05;;;;;;;7.00;6.40;;;;;;;;;;5084499;28;20205;-70
2022/09/12 00:35:32;;;;;;;5.93;5.53;;;;;;;;;;5084568;28;20201;-70
2022/09/12 00:37:58;;;;;;;6.38;5.93;;;;;;;;;;5084679;28;20196;-70
2022/09/12 00:40:27;;;;;;;7.63;6.18;;;;;;;;;;5084338;28;20192;-70
2022/09/12 00:42:53;;;;;;;6.68;6.13;;;;;;;;;;5084312;28;20216;-70
2022/09/12 00:45:22;;;;;;;6.53;5.90;;;;;;;;;;5084367;28;20202;-69
2022/09/12 00:47:49;;;;;;;6.78;6.20;;;;;;;;;;5084416;28;20518;-69
2022/09/12 00:50:16;;;;;;;6.40;5.90;;;;;;;;;;5084242;28;20211;-70
2022/09/12 00:52:44;;;;;;;8.25;6.28;;;;;;;;;;5083942;28;20204;-70
2022/09/12 00:55:12;;;;;;;6.13;5.72;;;;;;;;;;5084113;28;20434;-70
2022/09/12 00:57:41;;;;;;;6.53;5.90;;;;;;;;;;5083961;28;20216;-70
2022/09/12 01:00:12;;;;;;;6.57;5.97;;;;;;;;;;5084303;28;20203;-70
2022/09/12 01:02:38;;;;;;;7.47;6.53;;;;;;;;;;5083907;28;20365;-70
2022/09/12 01:05:05;;;;;;;6.30;5.68;;;;;;;;;;5083837;28;20224;-70
2022/09/12 01:07:34;;;;;;;6.15;5.78;;;;;;;;;;5083861;28;20201;-69
2022/09/12 01:10:00;;;;;;;7.18;6.55;;;;;;;;;;5084071;28;20196;-70
2022/09/12 01:12:27;;;;;;;7.53;6.80;;;;;;;;;;5083513;28;20196;-70
2022/09/12 01:14:54;;;;;;;6.20;5.70;;;;;;;;;;5083911;28;20208;-69
2022/09/12 01:17:21;;;;;;;6.78;6.28;;;;;;;;;;5083644;28;20536;-70
2022/09/12 01:19:57;;;;;;;7.35;6.70;;;;;;;;;;5083597;28;20397;-70
2022/09/12 01:22:35;;;;;;;8.50;6.10;;;;;;;;;;5083551;28;20196;-70
2022/09/12 01:25:07;;;;;;;6.90;6.43;;;;;;;;;;5083762;28;20197;-70
2022/09/12 01:27:41;;;;;;;8.13;6.38;;;;;;;;;;5083188;28;20193;-69
2022/09/12 01:30:23;;;;;;;7.30;5.75;;;;;;;;;;5083156;28;20195;-70
2022/09/12 01:33:00;;;;;;;6.90;6.30;;;;;;;;;;5083394;28;20269;-70
2022/09/12 01:35:32;;;;;;;6.90;6.28;;;;;;;;;;5083846;28;20369;-70
2022/09/12 01:38:03;;;;;;;7.38;6.82;;;;;;;;;;5083283;28;20266;-70
2022/09/12 01:40:31;;;;;;;9.38;6.40;;;;;;;;;;5083453;28;20467;-70
2022/09/12 01:43:03;;;;;;;7.57;6.88;;;;;;;;;;5083206;28;20503;-70
2022/09/12 01:45:32;;;;;;;6.68;6.07;;;;;;;;;;5083210;28;20197;-70
2022/09/12 01:48:02;;;;;;;6.72;6.13;;;;;;;;;;5083007;28;20192;-70
2022/09/12 01:50:31;;;;;;;5.88;5.47;;;;;;;;;;5083350;28;20196;-70
2022/09/12 01:53:00;;;;;;;8.38;6.03;;;;;;;;;;5083071;28;20236;-70
2022/09/12 01:55:28;;;;;;;6.60;6.10;;;;;;;;;;5083134;28;20200;-69
2022/09/12 01:57:59;;;;;;;8.30;6.10;;;;;;;;;;5083267;28;20270;-70
2022/09/12 02:00:25;;;;;;;6.55;6.05;;;;;;;;;;5082776;28;20196;-70
2022/09/12 02:02:54;;;;;;;7.43;5.82;;;;;;;;;;5082595;28;20208;-70
2022/09/12 02:05:25;;;;;;;6.80;6.30;;;;;;;;;;5082882;28;20216;-70
2022/09/12 02:07:51;;;;;;;8.32;6.85;;;;;;;;;;5082890;28;20238;-69
2022/09/12 02:10:20;;;;;;;7.32;6.32;;;;;;;;;;5082925;28;20197;-70
2022/09/12 02:12:48;;;;;;;7.00;6.40;;;;;;;;;;5082436;28;20519;-70
2022/09/12 02:15:16;;;;;;;7.53;6.82;;;;;;;;;;5082620;28;20208;-70
2022/09/12 02:17:44;;;;;;;7.47;6.85;;;;;;;;;;5082718;28;20224;-70
2022/09/12 02:20:13;;;;;;;7.00;6.50;;;;;;;;;;5082654;28;20511;-70
2022/09/12 02:22:41;;;;;;;6.90;6.38;;;;;;;;;;5082315;28;20508;-70
2022/09/12 02:25:09;;;;;;;9.05;6.15;;;;;;;;;;5082992;28;20410;-70
2022/09/12 02:27:37;;;;;;;7.18;6.65;;;;;;;;;;5082513;28;20207;-69
2022/09/12 02:30:05;;;;;;;7.40;6.70;;;;;;;;;;5082549;28;20200;-70
2022/09/12 02:32:34;;;;;;;8.75;6.43;;;;;;;;;;5082327;28;20196;-70
2022/09/12 02:35:02;;;;;;;6.63;6.22;;;;;;;;;;5082412;28;20200;-69
2022/09/12 02:37:33;;;;;;;6.82;6.32;;;;;;;;;;5081975;28;20271;-69
2022/09/12 02:40:01;;;;;;;6.47;5.88;;;;;;;;;;5082049;28;20200;-69
2022/09/12 02:42:27;;;;;;;6.88;6.28;;;;;;;;;;5082116;28;20204;-69
2022/09/12 02:44:55;;;;;;;6.93;6.32;;;;;;;;;;5082434;28;20242;-69
2022/09/12 02:47:25;;;;;;;6.93;6.38;;;;;;;;;;5082246;28;20200;-69
2022/09/12 02:49:51;;;;;;;8.68;6.13;;;;;;;;;;5082218;28;20476;-69
2022/09/12 02:52:18;;;;;;;6.20;5.70;;;;;;;;;;5082081;28;20208;-69
2022/09/12 02:54:44;;;;;;;7.65;6.03;;;;;;;;;;5082081;28;20200;-69
2022/09/12 02:57:17;;;;;;;7.38;5.90;;;;;;;;;;5082399;28;20196;-69
2022/09/12 02:59:43;;;;;;;7.40;6.70;;;;;;;;;;5082057;28;20224;-70
2022/09/12 03:02:17;;;;;;;7.20;6.57;;;;;;;;;;5081932;28;20234;-70
2022/09/12 03:04:48;;;;;;;7.38;6.63;;;;;;;;;;5082120;28;20538;-70
2022/09/12 03:07:16;;;;;;;7.65;6.95;;;;;;;;;;5081980;28;20200;-70
2022/09/12 03:09:45;;;;;;;7.07;6.50;;;;;;;;;;5081912;28;20204;-70
2022/09/12 03:12:20;;;;;;;7.30;6.65;;;;;;;;;;5081904;28;20208;-70
2022/09/12 03:15:00;;;;;;;7.68;6.85;;;;;;;;;;5081930;28;20196;-70
2022/09/12 03:17:30;;;;;;;9.52;6.78;;;;;;;;;;5082012;28;20189;-70
2022/09/12 03:19:59;;;;;;;8.15;7.45;;;;;;;;;;5081853;28;20208;-70
2022/09/12 03:22:29;;;;;;;8.13;7.15;;;;;;;;;;5081878;28;20200;-70
2022/09/12 03:24:59;;;;;;;9.38;6.80;;;;;;;;;;5082065;28;20292;-70
2022/09/12 03:27:27;;;;;;;7.45;6.80;;;;;;;;;;5081783;28;20205;-70
2022/09/12 03:29:55;;;;;;;7.15;6.55;;;;;;;;;;5081864;28;20242;-69
2022/09/12 03:32:39;;;;;;;7.70;6.72;;;;;;;;;;5081450;28;20235;-70
2022/09/12 03:35:05;;;;;;;7.18;6.57;;;;;;;;;;5082280;28;20204;-70
2022/09/12 03:37:32;;;;;;;8.20;6.18;;;;;;;;;;5081801;28;20242;-70
2022/09/12 03:39:58;;;;;;;6.82;6.22;;;;;;;;;;5082040;28;20196;-69
2022/09/12 03:42:24;;;;;;;7.35;6.85;;;;;;;;;;5081997;28;20246;-70
2022/09/12 03:44:50;;;;;;;7.30;6.60;;;;;;;;;;5081699;28;20197;-69
2022/09/12 03:47:18;;;;;;;8.07;6.55;;;;;;;;;;5082019;28;20237;-69
2022/09/12 03:49:45;;;;;;;6.95;6.50;;;;;;;;;;5083105;28;20473;-70
2022/09/12 03:52:12;;;;;;;12.27;6.85;;;;;;;;;;5085177;28;20493;-69
2022/09/12 03:54:38;;;;;;;7.10;6.57;;;;;;;;;;5085423;28;20373;-70
2022/09/12 03:57:04;;;;;;;10.27;7.07;;;;;;;;;;5085261;28;20430;-69
2022/09/12 03:59:30;;;;;;;6.65;6.20;;;;;;;;;;5085163;28;20273;-70
2022/09/12 04:01:57;;;;;;;7.07;6.40;;;;;;;;;;5085118;28;20266;-69
2022/09/12 04:04:24;;;;;;;7.72;6.93;;;;;;;;;;5085110;28;20189;-70
2022/09/12 04:06:51;;;;;;;7.25;6.22;;;;;;;;;;5085169;28;20241;-70
2022/09/12 04:09:17;;;;;;;7.25;6.65;;;;;;;;;;5085024;28;20200;-70
2022/09/12 04:11:43;;;;;;;7.15;6.57;;;;;;;;;;5084979;28;20197;-69
2022/09/12 04:14:09;;;;;;;7.18;6.53;;;;;;;;;;5084690;28;20196;-69
2022/09/12 04:16:36;;;;;;;8.23;6.78;;;;;;;;;;5085074;28;20242;-69
2022/09/12 04:19:02;;;;;;;7.60;6.70;;;;;;;;;;5085075;28;20224;-69
2022/09/12 04:21:29;;;;;;;7.43;6.60;;;;;;;;;;5085001;28;20203;-69
2022/09/12 04:23:56;;;;;;;7.47;6.88;;;;;;;;;;5084540;28;20197;-69
2022/09/12 04:26:22;;;;;;;7.13;6.53;;;;;;;;;;5084718;28;20212;-69
2022/09/12 04:28:53;;;;;;;7.65;6.80;;;;;;;;;;5084870;28;20197;-70
2022/09/12 04:31:21;;;;;;;7.10;6.47;;;;;;;;;;5084737;28;20223;-69
2022/09/12 04:33:48;;;;;;;7.68;7.03;;;;;;;;;;5084388;28;20203;-69
2022/09/12 04:36:15;;;;;;;9.38;7.57;;;;;;;;;;5084711;28;20200;-69
2022/09/12 04:38:43;;;;;;;7.47;6.85;;;;;;;;;;5084429;28;20208;-69
2022/09/12 04:41:10;;;;;;;7.72;6.97;;;;;;;;;;5084405;28;20581;-70
2022/09/12 04:43:36;;;;;;;10.20;7.05;;;;;;;;;;5084071;28;20242;-69
2022/09/12 04:46:05;;;;;;;7.60;7.00;;;;;;;;;;5084525;28;20196;-70
2022/09/12 04:48:31;;;;;;;7.55;6.72;;;;;;;;;;5084499;28;20230;-70
2022/09/12 04:51:05;;;;;;;7.97;7.38;;;;;;;;;;5084327;28;20209;-69
2022/09/12 04:53:32;;;;;;;8.15;6.90;;;;;;;;;;5083935;28;20309;-69
2022/09/12 04:56:02;;;;;;;8.95;8.20;;;;;;;;;;5084308;28;20422;-69
2022/09/12 04:58:28;;;;;;;9.75;7.68;;;;;;;;;;5084133;28;20227;-69
2022/09/12 05:00:55;;;;;;;11.93;9.43;;;;;;;;;;5083391;28;20197;-69
2022/09/12 05:03:21;;;;;;;12.82;10.55;;;;;;;;;;5084144;28;20234;-70
2022/09/12 05:05:47;;;;;;;12.20;10.40;;;;;;;;;;5083873;28;20575;-69
2022/09/12 05:08:13;;;;;;;13.50;10.55;;;;;;;;;;5084315;28;20200;-69
2022/09/12 05:10:41;;;;;;;13.30;9.85;;;;;;;;;;5083787;28;20204;-69
2022/09/12 05:13:08;;;;;;;11.48;10.35;;;;;;;;;;5083632;28;20242;-70
2022/09/12 05:15:34;;;;;;;12.50;10.82;;;;;;;;;;5083217;28;20197;-68
2022/09/12 05:18:01;;;;;;;14.20;11.05;;;;;;;;;;5059031;28;20209;-69
2022/09/12 05:20:27;;;;;;;14.30;10.63;;;;;;;;;;5070012;28;20228;-69
2022/09/12 05:22:54;;;;;;;11.02;9.77;;;;;;;;;;5077276;28;20204;-70
2022/09/12 05:25:20;;;;;;;15.95;9.93;;;;;;;;;;5079012;28;20208;-60
2022/09/12 05:27:47;;;;;;;13.43;9.65;;;;;;;;;;5079971;28;20208;-60
2022/09/12 05:30:15;;;;;;;10.23;8.07;;;;;;;;;;5078294;28;20419;-60
2022/09/12 05:32:41;;;;;;;9.73;8.60;;;;;;;;;;5078430;28;20208;-60
2022/09/12 05:35:07;;;;;;;10.35;8.00;;;;;;;;;;5078854;28;20223;-60
2022/09/12 05:37:33;;;;;;;9.93;7.88;;;;;;;;;;5076370;28;20216;-61
2022/09/12 05:40:03;;;;;;;9.32;8.32;;;;;;;;;;5078128;28;20232;-62
2022/09/12 05:42:30;;;;;;;9.68;7.80;;;;;;;;;;5078157;28;20224;-62
2022/09/12 05:44:56;;;;;;;8.82;7.82;;;;;;;;;;5078327;28;20242;-61
2022/09/12 05:47:23;;;;;;;8.45;7.65;;;;;;;;;;5078444;28;20459;-61
2022/09/12 05:49:50;;;;;;;12.00;7.88;;;;;;;;;;5077878;28;20511;-61
2022/09/12 05:52:16;;;;;;;17.08;7.63;;;;;;;;;;5077536;28;20685;-61
2022/09/12 05:54:42;;;;;;;9.50;7.75;;;;;;;;;;5077929;28;20208;-61
2022/09/12 05:57:09;;;;;;;9.10;6.72;;;;;;;;;;5078483;28;20592;-61
2022/09/12 05:59:35;;;;;;;8.73;6.93;;;;;;;;;;5077464;28;20548;-61
2022/09/12 06:02:01;;;;;;;8.07;7.25;;;;;;;;;;5077859;28;20257;-61
2022/09/12 06:04:29;;;;;;;9.50;8.07;;;;;;;;;;5077235;28;20208;-61
2022/09/12 06:06:55;;;;;;;8.35;7.50;;;;;;;;;;5076904;28;20598;-61
2022/09/12 06:09:24;;;;;;;8.52;7.43;;;;;;;;;;5077373;28;20250;-62
2022/09/12 06:11:50;;;;;;;8.70;7.90;;;;;;;;;;5076561;28;20208;-62
2022/09/12 06:14:18;;;;;;;9.63;7.47;;;;;;;;;;5076894;28;20246;-61
2022/09/12 06:16:45;;;;;;;9.95;7.95;;;;;;;;;;5077318;28;20557;-61
2022/09/12 06:19:13;;;;;;;13.23;8.35;;;;;;;;;;5077607;28;20303;-60
2022/09/12 06:21:40;;;;;;;9.00;8.20;;;;;;;;;;5074001;28;20740;-61
2022/09/12 06:24:07;;;;;;;11.27;8.05;;;;;;;;;;5077018;28;20446;-60
2022/09/12 06:26:33;;;;;;;8.70;8.00;;;;;;;;;;5077571;28;20217;-61
2022/09/12 06:29:00;;;;;;;13.07;9.30;;;;;;;;;;5077372;28;20406;-61
2022/09/12 06:31:28;;;;;;;9.93;9.02;;;;;;;;;;5077576;28;20239;-62
2022/09/12 06:33:54;;;;;;;10.18;9.27;;;;;;;;;;5077642;28;20208;-61
2022/09/12 06:36:22;;;;;;;10.07;9.07;;;;;;;;;;5077508;28;20212;-60
2022/09/12 06:38:53;;;;;;;11.25;9.00;;;;;;;;;;5074121;28;20243;-61
2022/09/12 06:41:20;;;;;;;13.10;9.20;;;;;;;;;;5077406;28;20212;-62
2022/09/12 06:43:46;;;;;;;12.10;9.30;;;;;;;;;;5077448;28;20208;-61
2022/09/12 06:46:12;;;;;;;9.75;8.75;;;;;;;;;;5077681;28;20252;-60
2022/09/12 06:48:39;;;;;;;14.05;10.30;;;;;;;;;;5078058;28;20251;-61
2022/09/12 06:51:07;;;;;;;14.20;10.50;;;;;;;;;;5076635;28;20218;-61
2022/09/12 06:53:35;;;;;;;10.82;9.73;;;;;;;;;;5076804;28;20239;-60
2022/09/12 06:56:04;;;;;;;10.77;9.68;;;;;;;;;;5077582;28;20216;-60
2022/09/12 06:58:30;;;;;;;11.30;9.43;;;;;;;;;;5077304;28;20528;-60
2022/09/12 07:01:01;;;;;;;10.65;9.40;;;;;;;;;;5077337;28;20277;-60
2022/09/12 07:03:27;;;;;;;12.55;9.68;;;;;;;;;;5077044;28;20208;-60
2022/09/12 07:05:53;;;;;;;10.65;9.25;;;;;;;;;;5077224;28;20571;-60
2022/09/12 07:08:19;;;;;;;13.60;10.20;;;;;;;;;;5077399;28;20539;-60
2022/09/12 07:10:46;;;;;;;12.75;10.00;;;;;;;;;;5077242;28;20523;-60
2022/09/12 07:13:13;;;;;;;11.07;9.48;;;;;;;;;;5076609;28;20204;-60
2022/09/12 07:15:39;;;;;;;12.43;9.30;;;;;;;;;;5073453;28;20261;-60
2022/09/12 07:18:06;;;;;;;10.40;9.40;;;;;;;;;;5077340;28;20534;-59
2022/09/12 07:20:33;;;;;;;9.63;8.82;;;;;;;;;;5076972;28;20232;-62
2022/09/12 07:22:59;;;;;;;10.05;9.10;;;;;;;;;;5076912;28;20215;-62
2022/09/12 07:25:26;;;;;;;9.93;8.95;;;;;;;;;;5079366;28;20212;-62
2022/09/12 07:27:52;;;;;;;9.93;8.93;;;;;;;;;;5081757;28;20464;-62
2022/09/12 07:30:20;;;;;;;11.50;9.48;;;;;;;;;;5081767;28;20220;-62
2022/09/12 07:32:47;;;;;;;12.95;9.40;;;;;;;;;;5080376;28;20204;-62
2022/09/12 07:35:13;;;;;;;10.52;9.35;;;;;;;;;;5080711;28;20208;-62
2022/09/12 07:37:39;;;;;;;10.70;8.93;;;;;;;;;;5081344;28;20212;-62
2022/09/12 07:40:06;;;;;;;11.30;9.32;;;;;;;;;;5081018;28;20232;-62
2022/09/12 07:42:32;;;;;;;10.77;9.45;;;;;;;;;;5080323;28;20231;-61
2022/09/12 07:44:58;;;;;;;14.70;9.40;;;;;;;;;;5080914;28;20211;-61
2022/09/12 07:47:26;;;;;;;13.20;9.98;;;;;;;;;;5080649;28;20434;-63
2022/09/12 07:49:52;;;;;;;15.13;10.25;;;;;;;;;;5080790;28;20443;-63
2022/09/12 07:52:19;;;;;;;11.35;10.25;;;;;;;;;;5080402;28;20212;-59
2022/09/12 07:54:45;;;;;;;11.75;10.55;;;;;;;;;;5080315;28;20265;-59
2022/09/12 07:57:11;;;;;;;11.73;10.52;;;;;;;;;;5081041;28;20288;-58
2022/09/12 07:59:41;;;;;;;13.38;11.48;;;;;;;;;;5080805;28;20239;-60
2022/09/12 08:02:10;;;;;;;11.80;10.60;;;;;;;;;;5080425;28;20212;-59
2022/09/12 08:04:38;;;;;;;15.85;10.65;;;;;;;;;;5079537;28;20200;-58
2022/09/12 08:07:05;;;;;;;12.52;10.45;;;;;;;;;;5080514;28;20208;-60
2022/09/12 08:09:31;;;;;;;14.25;11.07;;;;;;;;;;5080280;28;20215;-59
2022/09/12 08:11:57;;;;;;;13.85;9.85;;;;;;;;;;5080531;28;20208;-58
2022/09/12 08:14:24;;;;;;;12.30;10.50;;;;;;;;;;5079671;28;20209;-60
2022/09/12 08:16:50;;;;;;;12.10;10.05;;;;;;;;;;5080047;28;20532;-61
2022/09/12 08:19:17;;;;;;;10.75;9.65;;;;;;;;;;5079878;28;20239;-61
2022/09/12 08:21:44;;;;;;;10.90;9.80;;;;;;;;;;5081053;28;20228;-60
2022/09/12 08:24:11;;;;;;;9.27;8.48;;;;;;;;;;5076297;28;20307;-61
2022/09/12 08:26:38;;;;;;;8.38;7.65;;;;;;;;;;5080401;28;20270;-61
2022/09/12 08:29:04;;;;;;;11.43;7.88;;;;;;;;;;5079851;28;20212;-61
2022/09/12 08:31:35;;;;;;;9.63;8.32;;;;;;;;;;5078883;28;20212;-62
2022/09/12 08:34:01;;;;;;;8.70;7.90;;;;;;;;;;5077383;28;20283;-61
2022/09/12 08:36:28;;;;;;;13.23;8.43;;;;;;;;;;5075449;28;20212;-61
2022/09/12 08:38:56;;;;;;;10.77;8.25;;;;;;;;;;5077272;28;20287;-61
2022/09/12 08:41:26;;;;;;;10.20;7.47;;;;;;;;;;5076728;28;20265;-62
2022/09/12 08:43:57;;;;;;;8.98;7.72;;;;;;;;;;5077542;28;20234;-61
2022/09/12 08:46:25;;;;;;;10.45;8.25;;;;;;;;;;5076609;28;20510;-63
2022/09/12 08:48:51;;;;;;;9.73;7.38;;;;;;;;;;5076996;28;20212;-63
2022/09/12 08:51:19;;;;;;;9.70;7.63;;;;;;;;;;5072924;28;20227;-63
2022/09/12 08:53:47;;;;;;;10.00;8.98;;;;;;;;;;5076952;28;20441;-63
2022/09/12 08:56:15;;;;;;;8.90;6.43;;;;;;;;;;5076592;28;20254;-63
2022/09/12 08:58:42;;;;;;;8.85;8.00;;;;;;;;;;5073159;28;20208;-61
2022/09/12 09:01:12;;;;;;;7.80;7.00;;;;;;;;;;5076951;28;20492;-62
2022/09/12 09:03:48;;;;;;;10.32;7.00;;;;;;;;;;5076271;28;20770;-62
2022/09/12 09:06:22;;;;;;;8.50;6.78;;;;;;;;;;5072624;28;20586;-62
2022/09/12 09:08:55;;;;;;;11.48;6.53;;;;;;;;;;5076256;28;20437;-63
2022/09/12 09:11:31;;;;;;;9.02;6.03;;;;;;;;;;5076581;28;20205;-64
2022/09/12 09:16:49;;;;;;;6.28;5.72;;;;;;;;;;5076262;28;20584;-63
2022/09/12 09:19:18;;;;;;;6.75;5.47;;;;;;;;;;5075688;28;20212;-63
2022/09/12 09:21:47;;;;;;;8.43;5.80;;;;;;;;;;5075931;28;20207;-63
2022/09/12 09:24:17;;;;;;;8.80;6.53;;;;;;;;;;5072716;28;20212;-63
2022/09/12 09:26:46;;;;;;;8.27;4.82;;;;;;;;;;5075824;28;20290;-61
2022/09/12 09:29:16;;;;;;;4.45;4.15;;;;;;;;;;5073230;28;20446;-60
2022/09/12 09:31:44;;;;;;;4.20;4.00;;;;;;;;;;5072862;28;20250;-61
2022/09/12 09:34:14;;;;;;;7.38;4.32;;;;;;;;;;5075671;28;20559;-61
2022/09/12 09:36:43;;;;;;;4.43;3.97;;;;;;;;;;5072427;28;20567;-61
2022/09/12 09:39:15;;;;;;;5.82;3.30;;;;;;;;;;5072352;28;20220;-62
2022/09/12 09:41:45;;;;;;;11.25;5.47;;;;;;;;;;5076033;28;20250;-62
2022/09/12 09:44:13;;;;;;;3.60;3.30;;;;;;;;;;5075954;28;20208;-62
2022/09/12 09:46:39;;;;;;;4.13;2.95;;;;;;;;;;5071795;28;20204;-62
2022/09/12 09:49:06;;;;;;;4.75;2.50;;;;;;;;;;5074749;28;20441;-62
2022/09/12 09:51:34;;;;;;;4.75;2.70;;;;;;;;;;5075506;28;20255;-62
2022/09/12 09:54:02;;;;;;;3.67;3.42;;;;;;;;;;5075445;28;20274;-62
2022/09/12 09:56:30;;;;;;;2.63;2.40;;;;;;;;;;5074925;28;20204;-61
2022/09/12 09:58:56;;;;;;;3.33;2.25;;;;;;;;;;5075680;28;20216;-62
2022/09/12 10:01:24;;;;;;;7.43;3.85;;;;;;;;;;5075264;28;20255;-62
2022/09/12 10:03:51;;;;;;;2.90;2.55;;;;;;;;;;5074985;28;20266;-61
2022/09/12 10:06:31;;;;;;;5.95;2.33;;;;;;;;;;5075344;28;20450;-61
2022/09/12 10:09:04;;;;;;;1.70;1.60;;;;;;;;;;5075099;28;20208;-61
2022/09/12 10:11:32;;;;;;;1.80;1.70;;;;;;;;;;5074973;28;20334;-61
2022/09/12 10:13:59;;;;;;;1.52;1.52;;;;;;;;;;5075109;28;20212;-61
2022/09/12 10:16:28;;;;;;;1.92;1.90;;;;;;;;;;5074831;28;20461;-61
2022/09/12 10:18:55;;;;;;;2.10;1.80;;;;;;;;;;5074949;28;20258;-61
2022/09/12 10:21:26;;;;;;;2.22;2.13;;;;;;;;;;5068995;28;20630;-61
2022/09/12 10:23:58;;;;;;;1.77;1.67;;;;;;;;;;5071958;28;20240;-61
2022/09/12 10:26:25;;;;;;;1.60;1.50;;;;;;;;;;5064917;28;20295;-61
2022/09/12 10:28:52;;;;;;;3.15;2.95;;;;;;;;;;5074616;28;20265;-62
2022/09/12 10:31:27;;;;;;;2.00;1.90;;;;;;;;;;5074587;28;20208;-61
2022/09/12 10:33:55;;;;;;;4.18;1.50;;;;;;;;;;5074462;28;20329;-62
2022/09/12 10:36:22;;;;;;;1.38;1.38;;;;;;;;;;5074636;28;20605;-61
2022/09/12 10:38:50;;;;;;;1.60;1.50;;;;;;;;;;5074729;28;20397;-63
2022/09/12 10:41:17;;;;;;;3.80;1.55;;;;;;;;;;5071231;28;20239;-63
2022/09/12 10:43:43;;;;;;;4.80;1.55;;;;;;;;;;5068249;28;20392;-62
2022/09/12 10:46:37;;;;;;;5.80;1.80;;;;;;;;;;5074788;28;20513;-62
2022/09/12 10:49:19;;;;;;;2.33;2.00;;;;;;;;;;5039439;28;20241;-62
2022/09/12 10:51:46;;;;;;;5.38;3.42;;;;;;;;;;5071453;28;20212;-63
2022/09/12 10:54:12;;;;;;;2.10;2.00;;;;;;;;;;5074637;28;20343;-63
2022/09/12 10:56:42;;;;;;;2.75;1.63;;;;;;;;;;5074548;28;20547;-62
2022/09/12 10:59:15;;;;;;;3.05;1.58;;;;;;;;;;5074043;28;20212;-62
2022/09/12 11:01:44;;;;;;;4.60;1.55;;;;;;;;;;5072769;28;20231;-62
2022/09/12 11:04:20;;;;;;;1.42;1.33;;;;;;;;;;5074661;28;20217;-62
2022/09/12 11:06:50;;;;;;;2.10;1.40;;;;;;;;;;5070922;28;20280;-62
2022/09/12 11:09:19;;;;;;;1.55;1.45;;;;;;;;;;5074603;28;20445;-62
2022/09/12 11:11:52;;;;;;;1.45;1.45;;;;;;;;;;5074318;28;20223;-62
2022/09/12 11:14:33;;;;;;;3.63;1.75;;;;;;;;;;5074326;28;20589;-62
2022/09/12 11:17:02;;;;;;;1.75;1.65;;;;;;;;;;5073952;28;20212;-63
2022/09/12 11:19:38;;;;;;;2.80;1.33;;;;;;;;;;5074147;28;20212;-62
2022/09/12 11:22:12;;;;;;;1.30;1.30;;;;;;;;;;5074283;28;20234;-62
2022/09/12 11:24:44;;;;;;;1.80;1.80;;;;;;;;;;5073934;28;20216;-62
2022/09/12 11:27:25;;;;;;;2.63;1.20;;;;;;;;;;5070330;28;20223;-62
2022/09/12 11:29:54;;;;;;;1.33;1.33;;;;;;;;;;5072005;28;20216;-63
2022/09/12 11:32:38;;;;;;;1.35;1.35;;;;;;;;;;5073980;28;20204;-62
2022/09/12 11:35:11;;;;;;;3.40;2.75;;;;;;;;;;5043554;28;20207;-63
2022/09/12 11:37:44;;;;;;;2.80;1.13;;;;;;;;;;5073603;28;20212;-63
2022/09/12 11:40:22;;;;;;;1.42;1.42;;;;;;;;;;5074669;28;20516;-62
2022/09/12 11:42:49;;;;;;;1.33;1.05;;;;;;;;;;5074070;28;20216;-63
2022/09/12 11:45:19;;;;;;;1.20;1.20;;;;;;;;;;5074141;28;20211;-62
2022/09/12 11:47:48;;;;;;;1.52;1.42;;;;;;;;;;5073905;28;20212;-62
2022/09/12 11:50:20;;;;;;;1.95;1.10;;;;;;;;;;5072833;28;20448;-62
2022/09/12 11:52:46;;;;;;;1.48;1.48;;;;;;;;;;5074135;28;20211;-62
2022/09/12 11:55:16;;;;;;;1.08;1.00;;;;;;;;;;5074443;28;20627;-62
2022/09/12 11:57:44;;;;;;;1.13;1.10;;;;;;;;;;5070219;28;20218;-62
2022/09/12 12:00:16;;;;;;;1.77;1.67;;;;;;;;;;5074513;28;20478;-62
2022/09/12 12:02:48;;;;;;;1.95;1.20;;;;;;;;;;5070529;28;20211;-61
2022/09/12 12:05:19;;;;;;;1.08;1.00;;;;;;;;;;5073947;28;20235;-62
2022/09/12 12:07:51;;;;;;;1.45;1.45;;;;;;;;;;5070184;28;20315;-62
2022/09/12 12:10:31;;;;;;;1.02;1.02;;;;;;;;;;5074595;28;20383;-62
2022/09/12 12:12:58;;;;;;;0.90;0.90;;;;;;;;;;5077374;28;20257;-62
2022/09/12 12:15:25;;;;;;;0.77;0.70;;;;;;;;;;5070898;28;20878;-62
2022/09/12 12:18:02;;;;;;;0.90;0.90;;;;;;;;;;5074970;28;20208;-62
2022/09/12 12:20:30;;;;;;;0.82;0.82;;;;;;;;;;5075623;28;20238;-62
2022/09/12 12:22:56;;;;;;;4.40;0.63;;;;;;;;;;5074493;28;20212;-62
2022/09/12 12:25:25;;;;;;;0.98;0.40;;;;;;;;;;5077222;28;20211;-61
2022/09/12 12:27:53;;;;;;;0.38;0.38;;;;;;;;;;5077144;28;20212;-62
2022/09/12 12:30:38;;;;;;;0.55;0.55;;;;;;;;;;5077358;28;20212;-62
2022/09/12 12:33:26;;;;;;;0.95;0.70;;;;;;;;;;5077086;28;20220;-64
2022/09/12 12:36:03;;;;;;;0.60;0.60;;;;;;;;;;5077030;28;20218;-64
2022/09/12 12:38:30;;;;;;;2.05;0.60;;;;;;;;;;5076328;28;20218;-63
2022/09/12 12:41:11;;;;;;;1.05;0.70;;;;;;;;;;5077211;28;20227;-63
2022/09/12 12:43:38;;;;;;;0.70;0.70;;;;;;;;;;5076360;28;20215;-63
2022/09/12 12:46:06;;;;;;;1.60;0.55;;;;;;;;;;5077135;28;20212;-61
2022/09/12 12:48:46;;;;;;;0.50;0.50;;;;;;;;;;5076336;28;20429;-63
2022/09/12 12:51:32;;;;;;;0.50;0.47;;;;;;;;;;5073943;28;20253;-63
2022/09/12 12:53:59;;;;;;;0.88;0.70;;;;;;;;;;5076416;28;20215;-62
2022/09/12 12:56:27;;;;;;;0.85;0.55;;;;;;;;;;5076354;28;20301;-63
2022/09/12 12:58:58;;;;;;;1.30;0.38;;;;;;;;;;5076589;28;20541;-63
2022/09/12 13:01:24;;;;;;;1.42;0.70;;;;;;;;;;5076625;28;20235;-64
2022/09/12 13:03:54;;;;;;;0.50;0.50;;;;;;;;;;5076167;28;20216;-64
2022/09/12 13:06:26;;;;;;;0.95;0.60;;;;;;;;;;5076450;28;20227;-63
2022/09/12 13:08:59;;;;;;;0.70;0.70;;;;;;;;;;5076003;28;20207;-62
2022/09/12 13:11:30;;;;;;;0.40;0.40;;;;;;;;;;5076460;28;20530;-62
2022/09/12 13:13:58;;;;;;;0.50;0.50;;;;;;;;;;5076431;28;20211;-63
2022/09/12 13:16:34;;;;;;;0.50;0.50;;;;;;;;;;5076034;28;20212;-61
2022/09/12 13:19:06;;;;;;;0.50;0.50;;;;;;;;;;5076216;28;20636;-62
2022/09/12 13:21:32;;;;;;;0.60;0.60;;;;;;;;;;5076007;28;20563;-61
2022/09/12 13:24:00;;;;;;;0.50;0.50;;;;;;;;;;5075914;28;20258;-61
2022/09/12 13:26:27;;;;;;;0.50;0.50;;;;;;;;;;5075765;28;20380;-62
2022/09/12 13:29:08;;;;;;;0.60;0.60;;;;;;;;;;5076080;28;20249;-62
2022/09/12 13:31:35;;;;;;;0.60;0.60;;;;;;;;;;5075634;28;20208;-63
2022/09/12 13:34:03;;;;;;;0.50;0.50;;;;;;;;;;5076189;28;20249;-63
2022/09/12 13:36:45;;;;;;;0.57;0.57;;;;;;;;;;5075765;28;20208;-63
2022/09/12 13:39:18;;;;;;;2.28;0.75;;;;;;;;;;5075936;28;20287;-63
2022/09/12 13:41:56;;;;;;;0.50;0.50;;;;;;;;;;5075453;28;20443;-62
2022/09/12 13:44:23;;;;;;;0.55;0.55;;;;;;;;;;5075494;28;20212;-62
2022/09/12 13:46:50;;;;;;;0.70;0.70;;;;;;;;;;5075358;28;20534;-62
2022/09/12 13:49:19;;;;;;;1.55;0.80;;;;;;;;;;5075303;28;20219;-62
2022/09/12 13:51:45;;;;;;;1.25;0.80;;;;;;;;;;5075766;28;20257;-62
2022/09/12 13:54:16;;;;;;;1.40;0.80;;;;;;;;;;5075300;28;20212;-62
2022/09/12 13:56:48;;;;;;;0.70;0.70;;;;;;;;;;5075587;28;20253;-61
2022/09/12 13:59:15;;;;;;;1.58;0.90;;;;;;;;;;5071787;28;20212;-62
2022/09/12 14:01:42;;;;;;;1.27;0.85;;;;;;;;;;5075769;28;20227;-61
2022/09/12 14:07:00;;;;;;;0.60;0.60;;;;;;;;;;5073910;28;20235;-70
2022/09/12 14:09:28;;;;;;;0.60;0.60;;;;;;;;;;5075715;28;20462;-69
2022/09/12 14:11:56;;;;;;;0.60;0.60;;;;;;;;;;5075090;28;20208;-69
2022/09/12 14:14:30;;;;;;;0.60;0.60;;;;;;;;;;5075301;28;20527;-69
2022/09/12 14:16:56;;;;;;;2.25;0.60;;;;;;;;;;5074824;28;20215;-69
2022/09/12 14:19:24;;;;;;;0.80;0.70;;;;;;;;;;5074599;28;20219;-69
2022/09/12 14:21:52;;;;;;;2.65;0.80;;;;;;;;;;5074857;28;20419;-69
2022/09/12 14:24:19;;;;;;;0.90;0.90;;;;;;;;;;5074457;28;20476;-69
2022/09/12 14:26:46;;;;;;;1.70;0.57;;;;;;;;;;5074236;28;20557;-70
2022/09/12 14:29:15;;;;;;;0.50;0.50;;;;;;;;;;5074605;28;20245;-70
2022/09/12 14:31:42;;;;;;;2.30;0.93;;;;;;;;;;5071252;28;20211;-70
2022/09/12 14:34:09;;;;;;;0.70;0.70;;;;;;;;;;5073292;28;20276;-69
2022/09/12 14:36:39;;;;;;;0.90;0.90;;;;;;;;;;5074462;28;20250;-70
2022/09/12 14:39:07;;;;;;;0.60;0.60;;;;;;;;;;5074131;28;20584;-70
2022/09/12 14:41:35;;;;;;;1.95;0.70;;;;;;;;;;5074334;28;20235;-70
2022/09/12 14:44:04;;;;;;;0.73;0.73;;;;;;;;;;5074136;28;20224;-70
2022/09/12 14:46:33;;;;;;;0.60;0.60;;;;;;;;;;5074462;28;20234;-69
2022/09/12 14:49:01;;;;;;;1.50;0.70;;;;;;;;;;5074207;28;20212;-70
2022/09/12 14:51:30;;;;;;;0.85;0.70;;;;;;;;;;5074968;28;20219;-69
2022/09/12 14:53:57;;;;;;;0.88;0.60;;;;;;;;;;5074003;28;20547;-70
2022/09/12 14:56:37;;;;;;;0.70;0.70;;;;;;;;;;5073919;28;20547;-70